首页
METAR-TAF:

METAR-TAF

机场 :

默特尔比奇, 南卡罗来纳州, 美国

纬度: 33-41N, 经度: 078-56W, 海拔: 8米

当前天气观测

该预报发布于29分钟前的00:56 UTC
风速4节,风向西北
温度 18°C
湿度 88%
气压 1020 hPa
能見度: 16.1公里
天空无云

METAR: KMYR 240056Z 31004KT 10SM CLR 18/16 A3012 RMK AO2 SLP200 T01780156

时间: 21:25 (01:25 UTC)

预报

该预报发布于2小时和5分钟前的23:20 UTC
预报有效从24日的 00点(UTC)到 24日的 24点(UTC)
风速3节,风向多变
能見度: 10公里
阴天层高于25000英尺
从 24日的 1500点(UTC)
风速14节,风向北转东北,有时为20节阵风
能見度: 10公里
天空无云

TAF: KMYR 232320Z 2400/2424 VRB03KT P6SM OVC250 FM241500 03014G20KT P6SM SKC

超过4000个机场的气象观测和天气预报(METAR&TAF报告)。

可查询的气象台以黄色和红色小点在地图上表示。

将鼠标移到小点上方,可查看气象台名称。

然后点击查看天气观测和预报。

如需切换地图:点击带黑十字的绿色按钮放大地图;点击带横线的绿色按钮缩小地图;或者点击绿色箭头查看邻近地区的地图。


METAR-TAF: